sensor_id;sensor_type;location;lat;lon;timestamp;P1;durP1;ratioP1;P2;durP2;ratioP2
73585;SDS011;61865;50.232;18.614;2023-12-07T00:01:30;83.75;;;43.70;;
73585;SDS011;61865;50.232;18.614;2023-12-07T00:03:54;80.60;;;42.55;;
73585;SDS011;61865;50.232;18.614;2023-12-07T00:06:17;89.63;;;44.72;;
73585;SDS011;61865;50.232;18.614;2023-12-07T00:08:40;82.18;;;40.92;;
73585;SDS011;61865;50.232;18.614;2023-12-07T00:11:01;92.88;;;47.40;;
73585;SDS011;61865;50.232;18.614;2023-12-07T00:13:23;98.95;;;46.65;;
73585;SDS011;61865;50.232;18.614;2023-12-07T00:15:45;93.30;;;45.03;;
73585;SDS011;61865;50.232;18.614;2023-12-07T00:18:07;100.47;;;47.53;;
73585;SDS011;61865;50.232;18.614;2023-12-07T00:20:30;71.28;;;38.33;;
73585;SDS011;61865;50.232;18.614;2023-12-07T00:25:14;86.05;;;43.35;;
73585;SDS011;61865;50.232;18.614;2023-12-07T00:27:37;96.85;;;44.60;;
73585;SDS011;61865;50.232;18.614;2023-12-07T00:29:59;106.95;;;50.67;;
73585;SDS011;61865;50.232;18.614;2023-12-07T00:32:21;80.00;;;40.60;;
73585;SDS011;61865;50.232;18.614;2023-12-07T00:34:43;80.80;;;40.50;;
73585;SDS011;61865;50.232;18.614;2023-12-07T00:37:06;102.97;;;51.97;;
73585;SDS011;61865;50.232;18.614;2023-12-07T00:39:28;75.32;;;40.85;;
73585;SDS011;61865;50.232;18.614;2023-12-07T00:41:52;100.85;;;49.53;;
73585;SDS011;61865;50.232;18.614;2023-12-07T00:44:14;84.65;;;43.85;;
73585;SDS011;61865;50.232;18.614;2023-12-07T00:46:36;79.78;;;41.47;;
73585;SDS011;61865;50.232;18.614;2023-12-07T00:48:58;95.35;;;50.13;;
73585;SDS011;61865;50.232;18.614;2023-12-07T00:51:20;81.35;;;44.78;;
73585;SDS011;61865;50.232;18.614;2023-12-07T00:53:43;100.68;;;52.63;;
73585;SDS011;61865;50.232;18.614;2023-12-07T00:56:05;95.68;;;50.83;;
73585;SDS011;61865;50.232;18.614;2023-12-07T00:58:29;89.43;;;45.45;;
73585;SDS011;61865;50.232;18.614;2023-12-07T01:00:52;80.35;;;40.47;;
73585;SDS011;61865;50.232;18.614;2023-12-07T01:03:14;90.97;;;44.97;;
73585;SDS011;61865;50.232;18.614;2023-12-07T01:05:36;103.93;;;53.97;;
73585;SDS011;61865;50.232;18.614;2023-12-07T01:07:58;103.45;;;49.72;;
73585;SDS011;61865;50.232;18.614;2023-12-07T01:10:20;104.45;;;54.95;;
73585;SDS011;61865;50.232;18.614;2023-12-07T01:12:43;106.10;;;53.33;;
73585;SDS011;61865;50.232;18.614;2023-12-07T01:15:07;110.55;;;51.13;;
73585;SDS011;61865;50.232;18.614;2023-12-07T01:17:29;106.97;;;48.72;;
73585;SDS011;61865;50.232;18.614;2023-12-07T01:19:52;94.22;;;48.45;;
73585;SDS011;61865;50.232;18.614;2023-12-07T01:22:14;100.50;;;49.50;;
73585;SDS011;61865;50.232;18.614;2023-12-07T01:24:36;95.43;;;49.72;;
73585;SDS011;61865;50.232;18.614;2023-12-07T01:26:58;98.00;;;48.60;;
73585;SDS011;61865;50.232;18.614;2023-12-07T01:29:21;100.63;;;53.67;;
73585;SDS011;61865;50.232;18.614;2023-12-07T01:31:44;108.78;;;54.33;;
73585;SDS011;61865;50.232;18.614;2023-12-07T01:34:07;107.35;;;54.60;;
73585;SDS011;61865;50.232;18.614;2023-12-07T01:36:29;103.45;;;54.03;;
73585;SDS011;61865;50.232;18.614;2023-12-07T01:38:51;98.10;;;50.35;;
73585;SDS011;61865;50.232;18.614;2023-12-07T01:41:14;107.90;;;51.92;;
73585;SDS011;61865;50.232;18.614;2023-12-07T01:43:36;116.57;;;54.28;;
73585;SDS011;61865;50.232;18.614;2023-12-07T01:45:58;107.22;;;53.40;;
73585;SDS011;61865;50.232;18.614;2023-12-07T01:48:22;104.80;;;53.58;;
73585;SDS011;61865;50.232;18.614;2023-12-07T01:50:46;108.88;;;54.47;;
73585;SDS011;61865;50.232;18.614;2023-12-07T01:53:08;106.22;;;55.22;;
73585;SDS011;61865;50.232;18.614;2023-12-07T01:55:32;102.47;;;49.80;;
73585;SDS011;61865;50.232;18.614;2023-12-07T01:57:55;103.00;;;51.97;;
73585;SDS011;61865;50.232;18.614;2023-12-07T02:00:17;95.20;;;50.25;;
73585;SDS011;61865;50.232;18.614;2023-12-07T02:02:39;93.70;;;47.40;;
73585;SDS011;61865;50.232;18.614;2023-12-07T02:05:04;96.57;;;48.17;;
73585;SDS011;61865;50.232;18.614;2023-12-07T02:07:26;104.47;;;52.78;;
73585;SDS011;61865;50.232;18.614;2023-12-07T02:09:49;99.60;;;51.95;;
73585;SDS011;61865;50.232;18.614;2023-12-07T02:12:11;102.25;;;51.47;;
73585;SDS011;61865;50.232;18.614;2023-12-07T02:14:34;107.95;;;52.72;;
73585;SDS011;61865;50.232;18.614;2023-12-07T02:16:57;108.97;;;55.10;;
73585;SDS011;61865;50.232;18.614;2023-12-07T02:19:26;110.72;;;54.47;;
73585;SDS011;61865;50.232;18.614;2023-12-07T02:21:55;103.18;;;50.42;;
73585;SDS011;61865;50.232;18.614;2023-12-07T02:24:19;94.75;;;48.10;;
73585;SDS011;61865;50.232;18.614;2023-12-07T02:26:44;101.18;;;47.25;;
73585;SDS011;61865;50.232;18.614;2023-12-07T02:29:06;95.90;;;48.70;;
73585;SDS011;61865;50.232;18.614;2023-12-07T02:31:28;124.35;;;54.05;;
73585;SDS011;61865;50.232;18.614;2023-12-07T02:33:50;96.53;;;48.17;;
73585;SDS011;61865;50.232;18.614;2023-12-07T02:36:13;114.15;;;51.75;;
73585;SDS011;61865;50.232;18.614;2023-12-07T02:38:36;103.25;;;53.50;;
73585;SDS011;61865;50.232;18.614;2023-12-07T02:40:59;102.93;;;50.03;;
73585;SDS011;61865;50.232;18.614;2023-12-07T02:43:24;108.40;;;53.78;;
73585;SDS011;61865;50.232;18.614;2023-12-07T02:45:46;112.63;;;53.67;;
73585;SDS011;61865;50.232;18.614;2023-12-07T02:48:08;111.68;;;54.70;;
73585;SDS011;61865;50.232;18.614;2023-12-07T02:50:30;105.70;;;52.60;;
73585;SDS011;61865;50.232;18.614;2023-12-07T02:52:53;95.82;;;51.38;;
73585;SDS011;61865;50.232;18.614;2023-12-07T02:55:16;76.32;;;43.03;;
73585;SDS011;61865;50.232;18.614;2023-12-07T02:57:39;88.47;;;44.60;;
73585;SDS011;61865;50.232;18.614;2023-12-07T03:00:02;99.43;;;50.53;;
73585;SDS011;61865;50.232;18.614;2023-12-07T03:02:27;86.72;;;47.63;;
73585;SDS011;61865;50.232;18.614;2023-12-07T03:04:49;91.30;;;48.50;;
73585;SDS011;61865;50.232;18.614;2023-12-07T03:07:11;103.10;;;52.10;;
73585;SDS011;61865;50.232;18.614;2023-12-07T03:09:34;108.13;;;55.72;;
73585;SDS011;61865;50.232;18.614;2023-12-07T03:11:56;96.90;;;49.55;;
73585;SDS011;61865;50.232;18.614;2023-12-07T03:14:18;77.97;;;44.50;;
73585;SDS011;61865;50.232;18.614;2023-12-07T03:16:42;86.90;;;48.38;;
73585;SDS011;61865;50.232;18.614;2023-12-07T03:19:04;90.60;;;47.90;;
73585;SDS011;61865;50.232;18.614;2023-12-07T03:21:26;97.95;;;50.55;;
73585;SDS011;61865;50.232;18.614;2023-12-07T03:23:49;92.00;;;48.63;;
73585;SDS011;61865;50.232;18.614;2023-12-07T03:26:11;111.82;;;54.95;;
73585;SDS011;61865;50.232;18.614;2023-12-07T03:28:33;111.65;;;56.40;;
73585;SDS011;61865;50.232;18.614;2023-12-07T03:30:55;103.70;;;51.08;;
73585;SDS011;61865;50.232;18.614;2023-12-07T03:33:19;85.78;;;46.20;;
73585;SDS011;61865;50.232;18.614;2023-12-07T03:35:41;90.60;;;46.33;;
73585;SDS011;61865;50.232;18.614;2023-12-07T03:38:03;104.40;;;54.08;;
73585;SDS011;61865;50.232;18.614;2023-12-07T03:40:26;99.47;;;52.60;;
73585;SDS011;61865;50.232;18.614;2023-12-07T03:42:48;113.15;;;55.97;;
73585;SDS011;61865;50.232;18.614;2023-12-07T03:45:10;103.00;;;49.78;;
73585;SDS011;61865;50.232;18.614;2023-12-07T03:47:32;91.47;;;47.85;;
73585;SDS011;61865;50.232;18.614;2023-12-07T03:49:56;103.57;;;48.65;;
73585;SDS011;61865;50.232;18.614;2023-12-07T03:52:18;92.22;;;45.72;;
73585;SDS011;61865;50.232;18.614;2023-12-07T03:54:41;94.18;;;47.53;;
73585;SDS011;61865;50.232;18.614;2023-12-07T03:57:03;110.38;;;49.45;;
73585;SDS011;61865;50.232;18.614;2023-12-07T03:59:25;99.18;;;49.35;;
73585;SDS011;61865;50.232;18.614;2023-12-07T04:01:48;109.18;;;51.65;;
73585;SDS011;61865;50.232;18.614;2023-12-07T04:04:10;103.57;;;49.35;;
73585;SDS011;61865;50.232;18.614;2023-12-07T04:06:33;111.65;;;52.58;;
73585;SDS011;61865;50.232;18.614;2023-12-07T04:08:56;97.07;;;48.83;;
73585;SDS011;61865;50.232;18.614;2023-12-07T04:11:18;107.63;;;53.95;;
73585;SDS011;61865;50.232;18.614;2023-12-07T04:13:41;115.60;;;53.92;;
73585;SDS011;61865;50.232;18.614;2023-12-07T04:16:03;113.93;;;53.65;;
73585;SDS011;61865;50.232;18.614;2023-12-07T04:18:26;102.75;;;50.88;;
73585;SDS011;61865;50.232;18.614;2023-12-07T04:20:48;93.97;;;47.65;;
73585;SDS011;61865;50.232;18.614;2023-12-07T04:23:11;101.75;;;50.90;;
73585;SDS011;61865;50.232;18.614;2023-12-07T04:25:34;95.88;;;46.38;;
73585;SDS011;61865;50.232;18.614;2023-12-07T04:27:56;107.57;;;48.15;;
73585;SDS011;61865;50.232;18.614;2023-12-07T04:30:19;104.03;;;47.38;;
73585;SDS011;61865;50.232;18.614;2023-12-07T04:32:41;99.38;;;44.55;;
73585;SDS011;61865;50.232;18.614;2023-12-07T04:35:03;98.05;;;44.75;;
73585;SDS011;61865;50.232;18.614;2023-12-07T04:37:26;98.60;;;45.40;;
73585;SDS011;61865;50.232;18.614;2023-12-07T04:39:50;114.75;;;48.55;;
73585;SDS011;61865;50.232;18.614;2023-12-07T04:42:12;96.25;;;45.20;;
73585;SDS011;61865;50.232;18.614;2023-12-07T04:44:34;97.90;;;45.58;;
73585;SDS011;61865;50.232;18.614;2023-12-07T04:46:57;93.53;;;41.97;;
73585;SDS011;61865;50.232;18.614;2023-12-07T04:49:19;104.82;;;46.38;;
73585;SDS011;61865;50.232;18.614;2023-12-07T04:51:41;95.15;;;42.75;;
73585;SDS011;61865;50.232;18.614;2023-12-07T04:54:06;86.97;;;39.22;;
73585;SDS011;61865;50.232;18.614;2023-12-07T04:56:30;93.18;;;42.97;;
73585;SDS011;61865;50.232;18.614;2023-12-07T04:58:52;95.82;;;42.50;;
73585;SDS011;61865;50.232;18.614;2023-12-07T05:01:14;104.68;;;43.85;;
73585;SDS011;61865;50.232;18.614;2023-12-07T05:03:38;98.95;;;42.22;;
73585;SDS011;61865;50.232;18.614;2023-12-07T05:06:01;102.60;;;43.03;;
73585;SDS011;61865;50.232;18.614;2023-12-07T05:08:23;90.72;;;42.03;;
73585;SDS011;61865;50.232;18.614;2023-12-07T05:10:45;98.15;;;44.33;;
73585;SDS011;61865;50.232;18.614;2023-12-07T05:13:09;84.40;;;40.67;;
73585;SDS011;61865;50.232;18.614;2023-12-07T05:15:32;76.05;;;35.47;;
73585;SDS011;61865;50.232;18.614;2023-12-07T05:17:54;93.03;;;41.33;;
73585;SDS011;61865;50.232;18.614;2023-12-07T05:20:16;100.03;;;42.75;;
73585;SDS011;61865;50.232;18.614;2023-12-07T05:22:42;96.70;;;38.65;;
73585;SDS011;61865;50.232;18.614;2023-12-07T05:25:05;90.85;;;40.63;;
73585;SDS011;61865;50.232;18.614;2023-12-07T05:27:28;94.93;;;41.05;;
73585;SDS011;61865;50.232;18.614;2023-12-07T05:29:52;94.78;;;39.42;;
73585;SDS011;61865;50.232;18.614;2023-12-07T05:32:14;97.80;;;38.47;;
73585;SDS011;61865;50.232;18.614;2023-12-07T05:34:36;91.47;;;39.45;;
73585;SDS011;61865;50.232;18.614;2023-12-07T05:36:59;84.45;;;36.75;;
73585;SDS011;61865;50.232;18.614;2023-12-07T05:39:21;91.50;;;38.92;;
73585;SDS011;61865;50.232;18.614;2023-12-07T05:41:43;88.32;;;38.10;;
73585;SDS011;61865;50.232;18.614;2023-12-07T05:44:06;87.45;;;38.22;;
73585;SDS011;61865;50.232;18.614;2023-12-07T05:46:30;91.03;;;38.72;;
73585;SDS011;61865;50.232;18.614;2023-12-07T05:48:52;87.35;;;38.65;;
73585;SDS011;61865;50.232;18.614;2023-12-07T05:51:15;86.43;;;38.10;;
73585;SDS011;61865;50.232;18.614;2023-12-07T05:53:37;97.53;;;42.22;;
73585;SDS011;61865;50.232;18.614;2023-12-07T05:56:00;86.90;;;39.30;;
73585;SDS011;61865;50.232;18.614;2023-12-07T05:58:23;94.38;;;39.78;;
73585;SDS011;61865;50.232;18.614;2023-12-07T06:00:45;92.13;;;42.50;;
73585;SDS011;61865;50.232;18.614;2023-12-07T06:03:09;103.03;;;41.80;;
73585;SDS011;61865;50.232;18.614;2023-12-07T06:05:31;89.35;;;40.08;;
73585;SDS011;61865;50.232;18.614;2023-12-07T06:07:53;97.35;;;43.97;;
73585;SDS011;61865;50.232;18.614;2023-12-07T06:10:16;110.15;;;46.50;;
73585;SDS011;61865;50.232;18.614;2023-12-07T06:12:38;110.32;;;45.47;;
73585;SDS011;61865;50.232;18.614;2023-12-07T06:15:01;92.10;;;41.47;;
73585;SDS011;61865;50.232;18.614;2023-12-07T06:17:23;88.38;;;40.50;;
73585;SDS011;61865;50.232;18.614;2023-12-07T06:19:47;93.43;;;38.97;;
73585;SDS011;61865;50.232;18.614;2023-12-07T06:22:09;87.03;;;37.63;;
73585;SDS011;61865;50.232;18.614;2023-12-07T06:24:33;83.18;;;37.53;;
73585;SDS011;61865;50.232;18.614;2023-12-07T06:26:56;82.78;;;37.63;;
73585;SDS011;61865;50.232;18.614;2023-12-07T06:29:18;86.15;;;38.28;;
73585;SDS011;61865;50.232;18.614;2023-12-07T06:31:42;84.35;;;39.80;;
73585;SDS011;61865;50.232;18.614;2023-12-07T06:34:05;84.97;;;37.28;;
73585;SDS011;61865;50.232;18.614;2023-12-07T06:36:28;69.38;;;36.00;;
73585;SDS011;61865;50.232;18.614;2023-12-07T06:38:51;78.60;;;38.15;;
73585;SDS011;61865;50.232;18.614;2023-12-07T06:41:13;84.60;;;35.80;;
73585;SDS011;61865;50.232;18.614;2023-12-07T06:43:36;83.30;;;38.85;;
73585;SDS011;61865;50.232;18.614;2023-12-07T06:45:58;92.75;;;41.50;;
73585;SDS011;61865;50.232;18.614;2023-12-07T06:48:20;81.30;;;38.78;;
73585;SDS011;61865;50.232;18.614;2023-12-07T06:50:43;90.40;;;41.75;;
73585;SDS011;61865;50.232;18.614;2023-12-07T06:53:06;93.82;;;41.08;;
73585;SDS011;61865;50.232;18.614;2023-12-07T06:55:28;91.68;;;41.53;;
73585;SDS011;61865;50.232;18.614;2023-12-07T06:57:51;84.10;;;40.30;;
73585;SDS011;61865;50.232;18.614;2023-12-07T07:00:14;91.25;;;40.35;;
73585;SDS011;61865;50.232;18.614;2023-12-07T07:02:38;92.97;;;41.22;;
73585;SDS011;61865;50.232;18.614;2023-12-07T07:05:00;91.60;;;40.40;;
73585;SDS011;61865;50.232;18.614;2023-12-07T07:07:22;78.05;;;38.75;;
73585;SDS011;61865;50.232;18.614;2023-12-07T07:09:46;103.53;;;45.88;;
73585;SDS011;61865;50.232;18.614;2023-12-07T07:12:08;95.47;;;44.08;;
73585;SDS011;61865;50.232;18.614;2023-12-07T07:14:30;94.22;;;42.88;;
73585;SDS011;61865;50.232;18.614;2023-12-07T07:16:53;87.57;;;39.95;;
73585;SDS011;61865;50.232;18.614;2023-12-07T07:19:15;87.15;;;40.13;;
73585;SDS011;61865;50.232;18.614;2023-12-07T07:21:39;89.20;;;39.53;;
73585;SDS011;61865;50.232;18.614;2023-12-07T07:24:01;85.43;;;40.33;;
73585;SDS011;61865;50.232;18.614;2023-12-07T07:26:25;82.63;;;39.42;;
73585;SDS011;61865;50.232;18.614;2023-12-07T07:28:47;83.20;;;40.10;;
73585;SDS011;61865;50.232;18.614;2023-12-07T07:31:10;86.45;;;39.92;;
73585;SDS011;61865;50.232;18.614;2023-12-07T07:33:32;96.28;;;39.22;;
73585;SDS011;61865;50.232;18.614;2023-12-07T07:35:54;97.50;;;39.75;;
73585;SDS011;61865;50.232;18.614;2023-12-07T07:38:17;81.22;;;38.65;;
73585;SDS011;61865;50.232;18.614;2023-12-07T07:40:39;87.85;;;40.75;;
73585;SDS011;61865;50.232;18.614;2023-12-07T07:43:03;87.43;;;39.17;;
73585;SDS011;61865;50.232;18.614;2023-12-07T07:45:25;89.70;;;41.38;;
73585;SDS011;61865;50.232;18.614;2023-12-07T07:47:48;81.75;;;39.90;;
73585;SDS011;61865;50.232;18.614;2023-12-07T07:50:10;89.97;;;40.08;;
73585;SDS011;61865;50.232;18.614;2023-12-07T07:52:32;110.63;;;45.53;;
73585;SDS011;61865;50.232;18.614;2023-12-07T07:54:55;85.68;;;41.20;;
73585;SDS011;61865;50.232;18.614;2023-12-07T07:57:18;96.65;;;44.70;;
73585;SDS011;61865;50.232;18.614;2023-12-07T07:59:41;90.78;;;44.30;;
73585;SDS011;61865;50.232;18.614;2023-12-07T08:02:04;92.85;;;43.25;;
73585;SDS011;61865;50.232;18.614;2023-12-07T08:04:26;91.80;;;43.08;;
73585;SDS011;61865;50.232;18.614;2023-12-07T08:06:48;88.65;;;41.83;;
73585;SDS011;61865;50.232;18.614;2023-12-07T08:09:11;88.18;;;41.63;;
73585;SDS011;61865;50.232;18.614;2023-12-07T08:11:36;99.43;;;44.78;;
73585;SDS011;61865;50.232;18.614;2023-12-07T08:13:58;95.97;;;43.85;;
73585;SDS011;61865;50.232;18.614;2023-12-07T08:16:22;100.93;;;47.67;;
73585;SDS011;61865;50.232;18.614;2023-12-07T08:18:45;86.78;;;41.15;;
73585;SDS011;61865;50.232;18.614;2023-12-07T08:21:07;85.50;;;42.45;;
73585;SDS011;61865;50.232;18.614;2023-12-07T08:23:29;96.80;;;44.88;;
73585;SDS011;61865;50.232;18.614;2023-12-07T08:28:14;98.30;;;41.90;;
73585;SDS011;61865;50.232;18.614;2023-12-07T08:30:36;86.88;;;40.20;;
73585;SDS011;61865;50.232;18.614;2023-12-07T08:33:00;92.40;;;41.63;;
73585;SDS011;61865;50.232;18.614;2023-12-07T08:35:22;86.60;;;40.75;;
73585;SDS011;61865;50.232;18.614;2023-12-07T08:37:44;89.30;;;43.13;;
73585;SDS011;61865;50.232;18.614;2023-12-07T08:40:07;88.80;;;40.40;;
73585;SDS011;61865;50.232;18.614;2023-12-07T08:42:31;89.10;;;40.88;;
73585;SDS011;61865;50.232;18.614;2023-12-07T08:44:53;86.03;;;40.10;;
73585;SDS011;61865;50.232;18.614;2023-12-07T08:47:16;82.40;;;39.88;;
73585;SDS011;61865;50.232;18.614;2023-12-07T08:49:39;83.55;;;37.78;;
73585;SDS011;61865;50.232;18.614;2023-12-07T08:52:02;82.45;;;39.40;;
73585;SDS011;61865;50.232;18.614;2023-12-07T08:54:24;87.18;;;39.95;;
73585;SDS011;61865;50.232;18.614;2023-12-07T08:56:46;78.60;;;38.58;;
73585;SDS011;61865;50.232;18.614;2023-12-07T08:59:08;92.90;;;41.28;;
73585;SDS011;61865;50.232;18.614;2023-12-07T09:01:31;90.07;;;43.10;;
73585;SDS011;61865;50.232;18.614;2023-12-07T09:03:54;94.30;;;41.75;;
73585;SDS011;61865;50.232;18.614;2023-12-07T09:06:18;87.68;;;40.63;;
73585;SDS011;61865;50.232;18.614;2023-12-07T09:08:40;91.40;;;40.88;;
73585;SDS011;61865;50.232;18.614;2023-12-07T09:11:02;96.20;;;42.95;;
73585;SDS011;61865;50.232;18.614;2023-12-07T09:13:25;82.30;;;40.42;;
73585;SDS011;61865;50.232;18.614;2023-12-07T09:15:48;83.38;;;40.53;;
73585;SDS011;61865;50.232;18.614;2023-12-07T09:18:10;91.05;;;41.10;;
73585;SDS011;61865;50.232;18.614;2023-12-07T09:20:32;91.30;;;41.15;;
73585;SDS011;61865;50.232;18.614;2023-12-07T09:22:56;86.68;;;40.33;;
73585;SDS011;61865;50.232;18.614;2023-12-07T09:25:18;89.88;;;38.92;;
73585;SDS011;61865;50.232;18.614;2023-12-07T09:27:41;88.57;;;40.90;;
73585;SDS011;61865;50.232;18.614;2023-12-07T09:30:04;83.50;;;37.90;;
73585;SDS011;61865;50.232;18.614;2023-12-07T09:32:28;86.95;;;38.95;;
73585;SDS011;61865;50.232;18.614;2023-12-07T09:34:50;87.72;;;41.10;;
73585;SDS011;61865;50.232;18.614;2023-12-07T09:37:13;80.55;;;39.15;;
73585;SDS011;61865;50.232;18.614;2023-12-07T09:39:37;92.20;;;41.65;;
73585;SDS011;61865;50.232;18.614;2023-12-07T09:41:59;85.15;;;39.13;;
73585;SDS011;61865;50.232;18.614;2023-12-07T09:44:21;88.43;;;42.58;;
73585;SDS011;61865;50.232;18.614;2023-12-07T09:46:44;93.22;;;44.35;;
73585;SDS011;61865;50.232;18.614;2023-12-07T09:49:06;95.03;;;42.55;;
73585;SDS011;61865;50.232;18.614;2023-12-07T09:51:28;91.13;;;39.63;;
73585;SDS011;61865;50.232;18.614;2023-12-07T09:53:53;87.88;;;39.47;;
73585;SDS011;61865;50.232;18.614;2023-12-07T09:56:17;91.45;;;42.00;;
73585;SDS011;61865;50.232;18.614;2023-12-07T09:58:39;77.40;;;35.33;;
73585;SDS011;61865;50.232;18.614;2023-12-07T10:01:02;83.28;;;38.90;;
73585;SDS011;61865;50.232;18.614;2023-12-07T10:03:25;86.30;;;40.45;;
73585;SDS011;61865;50.232;18.614;2023-12-07T10:05:53;81.60;;;39.38;;
73585;SDS011;61865;50.232;18.614;2023-12-07T10:08:24;88.38;;;39.58;;
73585;SDS011;61865;50.232;18.614;2023-12-07T10:10:47;99.25;;;41.40;;
73585;SDS011;61865;50.232;18.614;2023-12-07T10:13:24;86.00;;;39.17;;
73585;SDS011;61865;50.232;18.614;2023-12-07T10:15:46;85.63;;;40.53;;
73585;SDS011;61865;50.232;18.614;2023-12-07T10:18:09;89.82;;;42.80;;
73585;SDS011;61865;50.232;18.614;2023-12-07T10:20:31;84.55;;;40.90;;
73585;SDS011;61865;50.232;18.614;2023-12-07T10:23:02;72.82;;;37.70;;
73585;SDS011;61865;50.232;18.614;2023-12-07T10:25:25;82.18;;;39.20;;
73585;SDS011;61865;50.232;18.614;2023-12-07T10:27:47;77.70;;;38.47;;
73585;SDS011;61865;50.232;18.614;2023-12-07T10:30:11;87.97;;;41.40;;
73585;SDS011;61865;50.232;18.614;2023-12-07T10:32:36;78.35;;;40.67;;
73585;SDS011;61865;50.232;18.614;2023-12-07T10:34:58;82.15;;;40.35;;
73585;SDS011;61865;50.232;18.614;2023-12-07T10:37:21;85.22;;;41.97;;
73585;SDS011;61865;50.232;18.614;2023-12-07T10:39:43;81.82;;;39.40;;
73585;SDS011;61865;50.232;18.614;2023-12-07T10:42:06;83.10;;;39.65;;
73585;SDS011;61865;50.232;18.614;2023-12-07T10:44:30;85.65;;;39.03;;
73585;SDS011;61865;50.232;18.614;2023-12-07T10:46:57;72.95;;;37.58;;
73585;SDS011;61865;50.232;18.614;2023-12-07T10:49:20;73.30;;;36.85;;
73585;SDS011;61865;50.232;18.614;2023-12-07T10:51:45;89.82;;;43.50;;
73585;SDS011;61865;50.232;18.614;2023-12-07T10:54:07;84.57;;;40.95;;
73585;SDS011;61865;50.232;18.614;2023-12-07T10:56:33;87.80;;;38.75;;
73585;SDS011;61865;50.232;18.614;2023-12-07T10:58:57;82.47;;;37.03;;
73585;SDS011;61865;50.232;18.614;2023-12-07T11:01:20;74.75;;;37.05;;
73585;SDS011;61865;50.232;18.614;2023-12-07T11:03:44;69.20;;;36.55;;
73585;SDS011;61865;50.232;18.614;2023-12-07T11:06:07;75.75;;;39.88;;
73585;SDS011;61865;50.232;18.614;2023-12-07T11:08:31;74.13;;;38.92;;
73585;SDS011;61865;50.232;18.614;2023-12-07T11:10:58;78.35;;;38.10;;
73585;SDS011;61865;50.232;18.614;2023-12-07T11:13:22;81.32;;;38.45;;
73585;SDS011;61865;50.232;18.614;2023-12-07T11:15:45;80.43;;;37.13;;
73585;SDS011;61865;50.232;18.614;2023-12-07T11:18:07;71.75;;;37.13;;
73585;SDS011;61865;50.232;18.614;2023-12-07T11:20:40;88.35;;;39.33;;
73585;SDS011;61865;50.232;18.614;2023-12-07T11:23:04;78.32;;;36.78;;
73585;SDS011;61865;50.232;18.614;2023-12-07T11:25:27;65.93;;;34.63;;
73585;SDS011;61865;50.232;18.614;2023-12-07T11:27:49;70.90;;;37.13;;
73585;SDS011;61865;50.232;18.614;2023-12-07T11:30:21;72.32;;;34.50;;
73585;SDS011;61865;50.232;18.614;2023-12-07T11:32:44;66.18;;;34.17;;
73585;SDS011;61865;50.232;18.614;2023-12-07T11:35:07;81.07;;;35.42;;
73585;SDS011;61865;50.232;18.614;2023-12-07T11:40:15;74.53;;;36.85;;
73585;SDS011;61865;50.232;18.614;2023-12-07T11:42:39;78.82;;;37.55;;
73585;SDS011;61865;50.232;18.614;2023-12-07T11:45:03;73.13;;;36.13;;
73585;SDS011;61865;50.232;18.614;2023-12-07T11:47:26;71.93;;;34.40;;
73585;SDS011;61865;50.232;18.614;2023-12-07T11:49:48;90.28;;;38.60;;
73585;SDS011;61865;50.232;18.614;2023-12-07T11:52:14;73.63;;;37.03;;
73585;SDS011;61865;50.232;18.614;2023-12-07T11:54:36;68.10;;;33.08;;
73585;SDS011;61865;50.232;18.614;2023-12-07T11:57:00;69.47;;;34.30;;
73585;SDS011;61865;50.232;18.614;2023-12-07T11:59:22;68.18;;;34.40;;
73585;SDS011;61865;50.232;18.614;2023-12-07T12:01:46;72.15;;;35.78;;
73585;SDS011;61865;50.232;18.614;2023-12-07T12:04:09;73.35;;;35.97;;
73585;SDS011;61865;50.232;18.614;2023-12-07T12:06:32;76.63;;;36.17;;
73585;SDS011;61865;50.232;18.614;2023-12-07T12:08:55;69.28;;;36.13;;
73585;SDS011;61865;50.232;18.614;2023-12-07T12:11:17;73.03;;;34.58;;
73585;SDS011;61865;50.232;18.614;2023-12-07T12:13:41;65.22;;;33.38;;
73585;SDS011;61865;50.232;18.614;2023-12-07T12:16:04;64.68;;;34.58;;
73585;SDS011;61865;50.232;18.614;2023-12-07T12:18:26;65.65;;;32.28;;
73585;SDS011;61865;50.232;18.614;2023-12-07T12:20:50;66.43;;;33.15;;
73585;SDS011;61865;50.232;18.614;2023-12-07T12:23:12;62.75;;;32.92;;
73585;SDS011;61865;50.232;18.614;2023-12-07T12:25:34;60.00;;;33.58;;
73585;SDS011;61865;50.232;18.614;2023-12-07T12:27:57;70.47;;;34.92;;
73585;SDS011;61865;50.232;18.614;2023-12-07T12:30:22;70.70;;;35.67;;
73585;SDS011;61865;50.232;18.614;2023-12-07T12:32:45;63.05;;;32.47;;
73585;SDS011;61865;50.232;18.614;2023-12-07T12:35:08;71.05;;;35.00;;
73585;SDS011;61865;50.232;18.614;2023-12-07T12:37:32;73.53;;;34.42;;
73585;SDS011;61865;50.232;18.614;2023-12-07T12:39:54;70.70;;;35.92;;
73585;SDS011;61865;50.232;18.614;2023-12-07T12:42:16;68.93;;;34.65;;
73585;SDS011;61865;50.232;18.614;2023-12-07T12:44:38;68.18;;;35.00;;
73585;SDS011;61865;50.232;18.614;2023-12-07T12:47:02;69.55;;;33.65;;
73585;SDS011;61865;50.232;18.614;2023-12-07T12:49:34;73.63;;;33.03;;
73585;SDS011;61865;50.232;18.614;2023-12-07T12:51:56;65.82;;;32.90;;
73585;SDS011;61865;50.232;18.614;2023-12-07T12:54:18;68.70;;;32.22;;
73585;SDS011;61865;50.232;18.614;2023-12-07T12:56:42;64.53;;;32.65;;
73585;SDS011;61865;50.232;18.614;2023-12-07T12:59:05;64.78;;;31.92;;
73585;SDS011;61865;50.232;18.614;2023-12-07T13:01:29;67.80;;;32.22;;
73585;SDS011;61865;50.232;18.614;2023-12-07T13:03:53;61.63;;;31.00;;
73585;SDS011;61865;50.232;18.614;2023-12-07T13:06:17;65.90;;;32.50;;
73585;SDS011;61865;50.232;18.614;2023-12-07T13:08:41;72.07;;;34.75;;
73585;SDS011;61865;50.232;18.614;2023-12-07T13:11:03;69.40;;;32.03;;
73585;SDS011;61865;50.232;18.614;2023-12-07T13:13:26;65.30;;;32.50;;
73585;SDS011;61865;50.232;18.614;2023-12-07T13:15:49;58.63;;;30.20;;
73585;SDS011;61865;50.232;18.614;2023-12-07T13:18:12;65.30;;;31.23;;
73585;SDS011;61865;50.232;18.614;2023-12-07T13:20:35;62.92;;;31.48;;
73585;SDS011;61865;50.232;18.614;2023-12-07T13:22:58;57.10;;;28.77;;
73585;SDS011;61865;50.232;18.614;2023-12-07T13:25:21;53.35;;;28.17;;
73585;SDS011;61865;50.232;18.614;2023-12-07T13:27:43;54.28;;;29.20;;
73585;SDS011;61865;50.232;18.614;2023-12-07T13:30:06;59.85;;;30.15;;
73585;SDS011;61865;50.232;18.614;2023-12-07T13:32:29;58.65;;;29.58;;
73585;SDS011;61865;50.232;18.614;2023-12-07T13:34:51;63.17;;;32.28;;
73585;SDS011;61865;50.232;18.614;2023-12-07T13:37:15;60.58;;;31.10;;
73585;SDS011;61865;50.232;18.614;2023-12-07T13:39:37;57.03;;;29.60;;
73585;SDS011;61865;50.232;18.614;2023-12-07T13:41:59;59.85;;;31.08;;
73585;SDS011;61865;50.232;18.614;2023-12-07T13:44:22;59.13;;;29.90;;
73585;SDS011;61865;50.232;18.614;2023-12-07T13:46:45;54.40;;;29.17;;
73585;SDS011;61865;50.232;18.614;2023-12-07T13:49:07;55.90;;;28.55;;